Terminal Aerodrome Forecast
Issued by NWS

Home | Current Version | Previous Version | Text Only | Print | Product List | Glossary On
Versions: 1 2 3 4 5 6 7 8 9 10 11 12
000
FTAK31 PAJN 172320
TAFAWG
TAF
PAWG 172320Z 1800/1824 10006KT P6SM VCSH BKN040 OVC050
      TEMPO 1800/1804 -SHRA
     FM180400 11015G22KT P6SM -SHRA OVC050
     FM180900 12020G30KT P6SM -SHRA OVC080
     FM181200 11025G35KT 6SM -RA BR OVC050
     FM181500 11018G25KT 6SM -RA BR OVC050
     FM181800 11015G20KT P6SM OVC050
      AMD LTD TO CLD VIS AND WIND 1806/1815=

USA.gov is the U.S. government's official web portal to all federal, state and local government web resources and services.